Main page
METAR-TAF:

METAR-TAF

Airports :

L.O. Simenstad Municipal Airport

Osceola, Wisconsin, United States

latitude: 45-18-31N, longitude: 092-41-24W, elevation: 902 ft

Current weather observation

The report was made 20 minutes ago, at 16:35 UTC
Wind 3 mph from the North/Northwest
Temperature 72°F
Humidity 46%
Pressure 29.97 in. Hg
Visibility: 10 miles
Clear sky

METAR: KOEO 281635Z AUTO 33003KT 10SM CLR 22/10 A2997 RMK AO2 T02160095

Time: 11:55 (16:55 UTC)


TAF: missing

Weather observations and forecasts of more than 4000 airports (METAR and TAF reports).

The available stations are represented by yellow and red dots on the map.

Hover mouse over dot to see the name of the station.

Then click to see weather observations and forecasts.

To change the map : click on the green buttons with a black cross to zoom in, on the green button with a dash to zoom out, or on the green arrows for adjacent maps.


METAR-TAF: